sensor_id;sensor_type;location;lat;lon;timestamp;P1;durP1;ratioP1;P2;durP2;ratioP2
11681;SDS011;5897;42.640;23.310;2023-05-10T00:00:00;6.38;;;5.78;;
11681;SDS011;5897;42.640;23.310;2023-05-10T00:02:27;6.20;;;5.60;;
11681;SDS011;5897;42.640;23.310;2023-05-10T00:04:55;6.57;;;5.97;;
11681;SDS011;5897;42.640;23.310;2023-05-10T00:07:22;6.45;;;5.85;;
11681;SDS011;5897;42.640;23.310;2023-05-10T00:09:49;6.18;;;5.68;;
11681;SDS011;5897;42.640;23.310;2023-05-10T00:12:16;6.60;;;5.90;;
11681;SDS011;5897;42.640;23.310;2023-05-10T00:14:43;6.47;;;5.88;;
11681;SDS011;5897;42.640;23.310;2023-05-10T00:17:10;6.40;;;5.88;;
11681;SDS011;5897;42.640;23.310;2023-05-10T00:19:36;6.47;;;5.88;;
11681;SDS011;5897;42.640;23.310;2023-05-10T00:22:05;7.15;;;6.38;;
11681;SDS011;5897;42.640;23.310;2023-05-10T00:24:31;6.57;;;5.97;;
11681;SDS011;5897;42.640;23.310;2023-05-10T00:26:58;6.32;;;5.72;;
11681;SDS011;5897;42.640;23.310;2023-05-10T00:29:25;6.28;;;5.60;;
11681;SDS011;5897;42.640;23.310;2023-05-10T00:31:53;5.43;;;4.93;;
11681;SDS011;5897;42.640;23.310;2023-05-10T00:34:20;6.07;;;5.57;;
11681;SDS011;5897;42.640;23.310;2023-05-10T00:36:46;5.90;;;5.30;;
11681;SDS011;5897;42.640;23.310;2023-05-10T00:39:14;6.25;;;5.75;;
11681;SDS011;5897;42.640;23.310;2023-05-10T00:41:41;5.80;;;5.35;;
11681;SDS011;5897;42.640;23.310;2023-05-10T00:44:08;5.43;;;5.03;;
11681;SDS011;5897;42.640;23.310;2023-05-10T00:46:35;6.00;;;5.50;;
11681;SDS011;5897;42.640;23.310;2023-05-10T00:49:02;5.80;;;5.30;;
11681;SDS011;5897;42.640;23.310;2023-05-10T00:51:29;6.40;;;5.80;;
11681;SDS011;5897;42.640;23.310;2023-05-10T00:53:59;6.68;;;6.18;;
11681;SDS011;5897;42.640;23.310;2023-05-10T00:56:27;6.65;;;6.05;;
11681;SDS011;5897;42.640;23.310;2023-05-10T00:58:55;6.55;;;6.05;;
11681;SDS011;5897;42.640;23.310;2023-05-10T01:01:22;6.90;;;6.30;;
11681;SDS011;5897;42.640;23.310;2023-05-10T01:03:49;6.07;;;5.57;;
11681;SDS011;5897;42.640;23.310;2023-05-10T01:06:17;6.63;;;6.13;;
11681;SDS011;5897;42.640;23.310;2023-05-10T01:08:44;6.03;;;5.55;;
11681;SDS011;5897;42.640;23.310;2023-05-10T01:11:10;6.55;;;5.95;;
11681;SDS011;5897;42.640;23.310;2023-05-10T01:13:40;6.80;;;6.20;;
11681;SDS011;5897;42.640;23.310;2023-05-10T01:16:09;6.22;;;5.72;;
11681;SDS011;5897;42.640;23.310;2023-05-10T01:18:37;6.63;;;6.03;;
11681;SDS011;5897;42.640;23.310;2023-05-10T01:21:10;6.72;;;6.05;;
11681;SDS011;5897;42.640;23.310;2023-05-10T01:26:47;8.60;;;6.53;;
11681;SDS011;5897;42.640;23.310;2023-05-10T01:32:37;6.32;;;5.82;;
11681;SDS011;5897;42.640;23.310;2023-05-10T01:35:10;6.22;;;5.72;;
11681;SDS011;5897;42.640;23.310;2023-05-10T01:37:45;5.85;;;5.38;;
11681;SDS011;5897;42.640;23.310;2023-05-10T01:40:18;6.65;;;6.05;;
11681;SDS011;5897;42.640;23.310;2023-05-10T01:42:50;6.22;;;5.63;;
11681;SDS011;5897;42.640;23.310;2023-05-10T01:45:22;5.88;;;5.47;;
11681;SDS011;5897;42.640;23.310;2023-05-10T01:47:58;5.72;;;5.30;;
11681;SDS011;5897;42.640;23.310;2023-05-10T01:50:30;5.63;;;5.22;;
11681;SDS011;5897;42.640;23.310;2023-05-10T01:52:59;5.82;;;5.22;;
11681;SDS011;5897;42.640;23.310;2023-05-10T01:55:28;6.00;;;5.50;;
11681;SDS011;5897;42.640;23.310;2023-05-10T01:58:00;5.53;;;5.10;;
11681;SDS011;5897;42.640;23.310;2023-05-10T02:00:30;5.90;;;5.40;;
11681;SDS011;5897;42.640;23.310;2023-05-10T02:03:00;5.80;;;5.30;;
11681;SDS011;5897;42.640;23.310;2023-05-10T02:05:31;5.75;;;5.18;;
11681;SDS011;5897;42.640;23.310;2023-05-10T02:07:59;4.75;;;4.35;;
11681;SDS011;5897;42.640;23.310;2023-05-10T02:10:27;5.38;;;4.95;;
11681;SDS011;5897;42.640;23.310;2023-05-10T02:12:55;4.75;;;4.00;;
11681;SDS011;5897;42.640;23.310;2023-05-10T02:15:28;4.53;;;4.13;;
11681;SDS011;5897;42.640;23.310;2023-05-10T02:17:56;4.88;;;4.38;;
11681;SDS011;5897;42.640;23.310;2023-05-10T02:20:26;3.92;;;3.63;;
11681;SDS011;5897;42.640;23.310;2023-05-10T02:22:54;4.90;;;4.40;;
11681;SDS011;5897;42.640;23.310;2023-05-10T02:25:22;4.75;;;3.95;;
11681;SDS011;5897;42.640;23.310;2023-05-10T02:27:50;5.28;;;3.92;;
11681;SDS011;5897;42.640;23.310;2023-05-10T02:30:20;5.90;;;4.53;;
11681;SDS011;5897;42.640;23.310;2023-05-10T02:32:49;4.80;;;4.40;;
11681;SDS011;5897;42.640;23.310;2023-05-10T02:35:16;4.95;;;4.28;;
11681;SDS011;5897;42.640;23.310;2023-05-10T02:37:45;5.82;;;4.40;;
11681;SDS011;5897;42.640;23.310;2023-05-10T02:40:14;5.40;;;4.90;;
11681;SDS011;5897;42.640;23.310;2023-05-10T02:42:43;4.82;;;4.38;;
11681;SDS011;5897;42.640;23.310;2023-05-10T02:45:12;4.60;;;4.15;;
11681;SDS011;5897;42.640;23.310;2023-05-10T02:47:40;4.63;;;4.18;;
11681;SDS011;5897;42.640;23.310;2023-05-10T02:50:09;4.70;;;4.25;;
11681;SDS011;5897;42.640;23.310;2023-05-10T02:52:39;4.95;;;4.55;;
11681;SDS011;5897;42.640;23.310;2023-05-10T02:55:11;6.55;;;4.63;;
11681;SDS011;5897;42.640;23.310;2023-05-10T02:57:41;5.20;;;4.68;;
11681;SDS011;5897;42.640;23.310;2023-05-10T03:00:14;4.72;;;4.25;;
11681;SDS011;5897;42.640;23.310;2023-05-10T03:02:41;4.97;;;4.55;;
11681;SDS011;5897;42.640;23.310;2023-05-10T03:05:08;5.80;;;4.63;;
11681;SDS011;5897;42.640;23.310;2023-05-10T03:07:35;4.38;;;3.85;;
11681;SDS011;5897;42.640;23.310;2023-05-10T03:10:02;5.57;;;3.92;;
11681;SDS011;5897;42.640;23.310;2023-05-10T03:12:33;4.75;;;4.28;;
11681;SDS011;5897;42.640;23.310;2023-05-10T03:15:14;5.07;;;4.63;;
11681;SDS011;5897;42.640;23.310;2023-05-10T03:17:46;5.75;;;4.90;;
11681;SDS011;5897;42.640;23.310;2023-05-10T03:20:20;5.20;;;4.78;;
11681;SDS011;5897;42.640;23.310;2023-05-10T03:22:51;5.15;;;4.68;;
11681;SDS011;5897;42.640;23.310;2023-05-10T03:25:21;5.07;;;4.10;;
11681;SDS011;5897;42.640;23.310;2023-05-10T03:27:51;4.80;;;4.40;;
11681;SDS011;5897;42.640;23.310;2023-05-10T03:30:18;5.20;;;4.70;;
11681;SDS011;5897;42.640;23.310;2023-05-10T03:32:46;5.82;;;5.22;;
11681;SDS011;5897;42.640;23.310;2023-05-10T03:35:12;6.65;;;4.32;;
11681;SDS011;5897;42.640;23.310;2023-05-10T03:37:39;5.30;;;4.80;;
11681;SDS011;5897;42.640;23.310;2023-05-10T03:40:07;5.55;;;5.05;;
11681;SDS011;5897;42.640;23.310;2023-05-10T03:42:34;5.22;;;4.82;;
11681;SDS011;5897;42.640;23.310;2023-05-10T03:45:02;5.03;;;4.53;;
11681;SDS011;5897;42.640;23.310;2023-05-10T03:47:30;5.55;;;5.05;;
11681;SDS011;5897;42.640;23.310;2023-05-10T03:49:56;5.97;;;5.38;;
11681;SDS011;5897;42.640;23.310;2023-05-10T03:52:23;5.13;;;4.68;;
11681;SDS011;5897;42.640;23.310;2023-05-10T03:54:50;5.85;;;5.35;;
11681;SDS011;5897;42.640;23.310;2023-05-10T03:57:17;6.13;;;5.53;;
11681;SDS011;5897;42.640;23.310;2023-05-10T03:59:43;6.03;;;5.53;;
11681;SDS011;5897;42.640;23.310;2023-05-10T04:02:12;6.15;;;5.55;;
11681;SDS011;5897;42.640;23.310;2023-05-10T04:04:38;5.28;;;4.78;;
11681;SDS011;5897;42.640;23.310;2023-05-10T04:07:05;7.60;;;5.40;;
11681;SDS011;5897;42.640;23.310;2023-05-10T04:09:32;7.45;;;5.97;;
11681;SDS011;5897;42.640;23.310;2023-05-10T04:11:59;6.60;;;6.00;;
11681;SDS011;5897;42.640;23.310;2023-05-10T04:14:27;8.02;;;7.22;;
11681;SDS011;5897;42.640;23.310;2023-05-10T04:16:54;10.48;;;8.13;;
11681;SDS011;5897;42.640;23.310;2023-05-10T04:19:22;12.00;;;10.47;;
11681;SDS011;5897;42.640;23.310;2023-05-10T04:21:49;11.40;;;9.93;;
11681;SDS011;5897;42.640;23.310;2023-05-10T04:24:16;9.57;;;8.00;;
11681;SDS011;5897;42.640;23.310;2023-05-10T04:26:43;7.10;;;6.40;;
11681;SDS011;5897;42.640;23.310;2023-05-10T04:29:10;7.00;;;5.78;;
11681;SDS011;5897;42.640;23.310;2023-05-10T04:31:37;5.80;;;5.30;;
11681;SDS011;5897;42.640;23.310;2023-05-10T04:34:04;5.90;;;5.30;;
11681;SDS011;5897;42.640;23.310;2023-05-10T04:36:32;6.30;;;5.70;;
11681;SDS011;5897;42.640;23.310;2023-05-10T04:39:00;6.82;;;5.60;;
11681;SDS011;5897;42.640;23.310;2023-05-10T04:41:27;6.60;;;5.88;;
11681;SDS011;5897;42.640;23.310;2023-05-10T04:43:54;7.65;;;5.30;;
11681;SDS011;5897;42.640;23.310;2023-05-10T04:46:21;5.93;;;5.32;;
11681;SDS011;5897;42.640;23.310;2023-05-10T04:48:48;6.43;;;5.25;;
11681;SDS011;5897;42.640;23.310;2023-05-10T04:51:15;8.38;;;5.10;;
11681;SDS011;5897;42.640;23.310;2023-05-10T04:53:43;7.55;;;5.07;;
11681;SDS011;5897;42.640;23.310;2023-05-10T04:56:10;6.72;;;5.45;;
11681;SDS011;5897;42.640;23.310;2023-05-10T04:58:37;6.20;;;5.60;;
11681;SDS011;5897;42.640;23.310;2023-05-10T05:01:06;5.80;;;5.30;;
11681;SDS011;5897;42.640;23.310;2023-05-10T05:03:34;6.70;;;6.10;;
11681;SDS011;5897;42.640;23.310;2023-05-10T05:06:01;7.07;;;6.38;;
11681;SDS011;5897;42.640;23.310;2023-05-10T05:08:28;6.22;;;5.63;;
11681;SDS011;5897;42.640;23.310;2023-05-10T05:10:56;6.47;;;5.30;;
11681;SDS011;5897;42.640;23.310;2023-05-10T05:13:24;7.15;;;5.63;;
11681;SDS011;5897;42.640;23.310;2023-05-10T05:15:51;6.30;;;5.40;;
11681;SDS011;5897;42.640;23.310;2023-05-10T05:18:18;6.30;;;5.80;;
11681;SDS011;5897;42.640;23.310;2023-05-10T05:20:45;5.88;;;5.20;;
11681;SDS011;5897;42.640;23.310;2023-05-10T05:23:12;7.00;;;6.30;;
11681;SDS011;5897;42.640;23.310;2023-05-10T05:25:38;7.20;;;5.97;;
11681;SDS011;5897;42.640;23.310;2023-05-10T05:28:06;7.13;;;6.43;;
11681;SDS011;5897;42.640;23.310;2023-05-10T05:30:33;9.43;;;8.43;;
11681;SDS011;5897;42.640;23.310;2023-05-10T05:33:00;7.93;;;7.13;;
11681;SDS011;5897;42.640;23.310;2023-05-10T05:35:27;6.95;;;6.35;;
11681;SDS011;5897;42.640;23.310;2023-05-10T05:37:53;7.53;;;6.80;;
11681;SDS011;5897;42.640;23.310;2023-05-10T05:40:20;7.75;;;6.85;;
11681;SDS011;5897;42.640;23.310;2023-05-10T05:42:47;7.93;;;7.18;;
11681;SDS011;5897;42.640;23.310;2023-05-10T05:45:16;8.55;;;7.70;;
11681;SDS011;5897;42.640;23.310;2023-05-10T05:47:43;7.50;;;6.53;;
11681;SDS011;5897;42.640;23.310;2023-05-10T05:50:09;8.35;;;7.22;;
11681;SDS011;5897;42.640;23.310;2023-05-10T05:52:36;8.48;;;7.57;;
11681;SDS011;5897;42.640;23.310;2023-05-10T05:55:03;9.00;;;7.65;;
11681;SDS011;5897;42.640;23.310;2023-05-10T05:57:31;8.48;;;7.68;;
11681;SDS011;5897;42.640;23.310;2023-05-10T05:59:58;10.38;;;8.73;;
11681;SDS011;5897;42.640;23.310;2023-05-10T06:02:26;10.02;;;9.02;;
11681;SDS011;5897;42.640;23.310;2023-05-10T06:04:53;9.43;;;8.43;;
11681;SDS011;5897;42.640;23.310;2023-05-10T06:07:19;13.00;;;9.70;;
11681;SDS011;5897;42.640;23.310;2023-05-10T06:09:46;9.27;;;8.27;;
11681;SDS011;5897;42.640;23.310;2023-05-10T06:12:13;9.43;;;8.40;;
11681;SDS011;5897;42.640;23.310;2023-05-10T06:14:40;9.38;;;8.40;;
11681;SDS011;5897;42.640;23.310;2023-05-10T06:17:07;9.55;;;8.57;;
11681;SDS011;5897;42.640;23.310;2023-05-10T06:19:35;9.48;;;7.85;;
11681;SDS011;5897;42.640;23.310;2023-05-10T06:22:02;9.65;;;8.65;;
11681;SDS011;5897;42.640;23.310;2023-05-10T06:24:28;12.35;;;8.75;;
11681;SDS011;5897;42.640;23.310;2023-05-10T06:26:55;10.23;;;8.20;;
11681;SDS011;5897;42.640;23.310;2023-05-10T06:29:25;11.95;;;9.43;;
11681;SDS011;5897;42.640;23.310;2023-05-10T06:31:51;8.77;;;7.50;;
11681;SDS011;5897;42.640;23.310;2023-05-10T06:34:19;11.18;;;8.95;;
11681;SDS011;5897;42.640;23.310;2023-05-10T06:36:47;9.85;;;8.73;;
11681;SDS011;5897;42.640;23.310;2023-05-10T06:39:14;10.93;;;9.25;;
11681;SDS011;5897;42.640;23.310;2023-05-10T06:41:41;9.38;;;7.80;;
11681;SDS011;5897;42.640;23.310;2023-05-10T06:44:07;10.43;;;8.27;;
11681;SDS011;5897;42.640;23.310;2023-05-10T06:46:34;9.60;;;7.93;;
11681;SDS011;5897;42.640;23.310;2023-05-10T06:49:01;9.82;;;8.40;;
11681;SDS011;5897;42.640;23.310;2023-05-10T06:51:28;9.10;;;7.57;;
11681;SDS011;5897;42.640;23.310;2023-05-10T06:53:56;9.80;;;7.88;;
11681;SDS011;5897;42.640;23.310;2023-05-10T06:56:23;11.02;;;9.25;;
11681;SDS011;5897;42.640;23.310;2023-05-10T06:58:50;9.43;;;8.52;;
11681;SDS011;5897;42.640;23.310;2023-05-10T07:01:16;9.40;;;8.02;;
11681;SDS011;5897;42.640;23.310;2023-05-10T07:03:43;10.18;;;8.68;;
11681;SDS011;5897;42.640;23.310;2023-05-10T07:06:10;10.77;;;9.60;;
11681;SDS011;5897;42.640;23.310;2023-05-10T07:08:37;9.20;;;8.30;;
11681;SDS011;5897;42.640;23.310;2023-05-10T07:11:06;9.70;;;8.70;;
11681;SDS011;5897;42.640;23.310;2023-05-10T07:13:33;10.25;;;9.15;;
11681;SDS011;5897;42.640;23.310;2023-05-10T07:16:01;11.45;;;9.10;;
11681;SDS011;5897;42.640;23.310;2023-05-10T07:18:28;9.80;;;7.95;;
11681;SDS011;5897;42.640;23.310;2023-05-10T07:20:55;10.10;;;8.75;;
11681;SDS011;5897;42.640;23.310;2023-05-10T07:23:23;8.88;;;7.13;;
11681;SDS011;5897;42.640;23.310;2023-05-10T07:25:50;10.93;;;8.15;;
11681;SDS011;5897;42.640;23.310;2023-05-10T07:28:19;9.52;;;8.00;;
11681;SDS011;5897;42.640;23.310;2023-05-10T07:30:46;10.68;;;9.10;;
11681;SDS011;5897;42.640;23.310;2023-05-10T07:33:13;10.65;;;8.65;;
11681;SDS011;5897;42.640;23.310;2023-05-10T07:35:40;10.57;;;8.65;;
11681;SDS011;5897;42.640;23.310;2023-05-10T07:38:07;13.90;;;9.30;;
11681;SDS011;5897;42.640;23.310;2023-05-10T07:40:36;11.80;;;8.52;;
11681;SDS011;5897;42.640;23.310;2023-05-10T07:43:03;13.10;;;11.02;;
11681;SDS011;5897;42.640;23.310;2023-05-10T07:45:31;16.58;;;14.90;;
11681;SDS011;5897;42.640;23.310;2023-05-10T07:47:58;12.30;;;9.80;;
11681;SDS011;5897;42.640;23.310;2023-05-10T07:50:24;10.55;;;9.30;;
11681;SDS011;5897;42.640;23.310;2023-05-10T07:52:52;10.57;;;9.40;;
11681;SDS011;5897;42.640;23.310;2023-05-10T07:55:18;14.02;;;11.02;;
11681;SDS011;5897;42.640;23.310;2023-05-10T07:57:46;16.88;;;10.52;;
11681;SDS011;5897;42.640;23.310;2023-05-10T08:00:13;14.75;;;9.30;;
11681;SDS011;5897;42.640;23.310;2023-05-10T08:02:45;12.45;;;10.00;;
11681;SDS011;5897;42.640;23.310;2023-05-10T08:05:12;11.20;;;9.02;;
11681;SDS011;5897;42.640;23.310;2023-05-10T08:07:39;9.18;;;8.10;;
11681;SDS011;5897;42.640;23.310;2023-05-10T08:10:07;10.18;;;9.18;;
11681;SDS011;5897;42.640;23.310;2023-05-10T08:12:36;11.98;;;9.57;;
11681;SDS011;5897;42.640;23.310;2023-05-10T08:15:03;14.95;;;9.82;;
11681;SDS011;5897;42.640;23.310;2023-05-10T08:17:31;14.80;;;8.90;;
11681;SDS011;5897;42.640;23.310;2023-05-10T08:19:59;14.10;;;10.65;;
11681;SDS011;5897;42.640;23.310;2023-05-10T08:22:26;11.05;;;9.80;;
11681;SDS011;5897;42.640;23.310;2023-05-10T08:24:53;21.92;;;19.67;;
11681;SDS011;5897;42.640;23.310;2023-05-10T08:27:20;15.63;;;12.38;;
11681;SDS011;5897;42.640;23.310;2023-05-10T08:29:47;19.77;;;16.17;;
11681;SDS011;5897;42.640;23.310;2023-05-10T08:32:14;15.00;;;11.75;;
11681;SDS011;5897;42.640;23.310;2023-05-10T08:34:40;17.83;;;13.43;;
11681;SDS011;5897;42.640;23.310;2023-05-10T08:37:08;21.23;;;19.02;;
11681;SDS011;5897;42.640;23.310;2023-05-10T08:39:38;9.45;;;8.43;;
11681;SDS011;5897;42.640;23.310;2023-05-10T08:42:04;8.57;;;7.78;;
11681;SDS011;5897;42.640;23.310;2023-05-10T08:44:34;10.43;;;9.07;;
11681;SDS011;5897;42.640;23.310;2023-05-10T08:47:02;9.98;;;8.98;;
11681;SDS011;5897;42.640;23.310;2023-05-10T08:49:31;12.00;;;10.75;;
11681;SDS011;5897;42.640;23.310;2023-05-10T08:51:59;15.18;;;10.63;;
11681;SDS011;5897;42.640;23.310;2023-05-10T08:54:31;12.70;;;10.68;;
11681;SDS011;5897;42.640;23.310;2023-05-10T08:56:58;13.85;;;11.70;;
11681;SDS011;5897;42.640;23.310;2023-05-10T08:59:25;10.05;;;9.10;;
11681;SDS011;5897;42.640;23.310;2023-05-10T09:01:52;9.95;;;8.95;;
11681;SDS011;5897;42.640;23.310;2023-05-10T09:04:20;8.68;;;7.88;;
11681;SDS011;5897;42.640;23.310;2023-05-10T09:06:47;9.73;;;8.68;;
11681;SDS011;5897;42.640;23.310;2023-05-10T09:09:14;10.45;;;9.50;;
11681;SDS011;5897;42.640;23.310;2023-05-10T09:11:43;11.02;;;9.93;;
11681;SDS011;5897;42.640;23.310;2023-05-10T09:14:10;10.48;;;9.52;;
11681;SDS011;5897;42.640;23.310;2023-05-10T09:16:39;11.35;;;10.15;;
11681;SDS011;5897;42.640;23.310;2023-05-10T09:19:06;11.75;;;10.20;;
11681;SDS011;5897;42.640;23.310;2023-05-10T09:21:34;12.02;;;10.88;;
11681;SDS011;5897;42.640;23.310;2023-05-10T09:24:02;11.43;;;10.32;;
11681;SDS011;5897;42.640;23.310;2023-05-10T09:26:30;11.20;;;10.10;;
11681;SDS011;5897;42.640;23.310;2023-05-10T09:28:59;15.18;;;10.63;;
11681;SDS011;5897;42.640;23.310;2023-05-10T09:34:10;11.30;;;10.07;;
11681;SDS011;5897;42.640;23.310;2023-05-10T09:36:37;11.48;;;10.27;;
11681;SDS011;5897;42.640;23.310;2023-05-10T09:39:16;10.80;;;9.80;;
11681;SDS011;5897;42.640;23.310;2023-05-10T09:41:44;10.73;;;9.63;;
11681;SDS011;5897;42.640;23.310;2023-05-10T09:44:12;11.27;;;10.18;;
11681;SDS011;5897;42.640;23.310;2023-05-10T09:46:48;9.32;;;8.35;;
11681;SDS011;5897;42.640;23.310;2023-05-10T09:49:15;10.30;;;9.27;;
11681;SDS011;5897;42.640;23.310;2023-05-10T09:51:42;9.88;;;8.95;;
11681;SDS011;5897;42.640;23.310;2023-05-10T09:54:09;12.80;;;8.70;;
11681;SDS011;5897;42.640;23.310;2023-05-10T09:56:37;9.50;;;8.50;;
11681;SDS011;5897;42.640;23.310;2023-05-10T09:59:05;9.10;;;8.30;;
11681;SDS011;5897;42.640;23.310;2023-05-10T10:01:34;9.68;;;8.38;;
11681;SDS011;5897;42.640;23.310;2023-05-10T10:04:02;11.90;;;9.48;;
11681;SDS011;5897;42.640;23.310;2023-05-10T10:06:34;9.63;;;8.60;;
11681;SDS011;5897;42.640;23.310;2023-05-10T10:09:02;9.40;;;8.38;;
11681;SDS011;5897;42.640;23.310;2023-05-10T10:11:29;11.00;;;9.82;;
11681;SDS011;5897;42.640;23.310;2023-05-10T10:13:56;10.77;;;8.38;;
11681;SDS011;5897;42.640;23.310;2023-05-10T10:16:23;12.02;;;9.43;;
11681;SDS011;5897;42.640;23.310;2023-05-10T10:18:52;10.35;;;9.35;;
11681;SDS011;5897;42.640;23.310;2023-05-10T10:21:19;9.38;;;8.45;;
11681;SDS011;5897;42.640;23.310;2023-05-10T10:23:47;9.88;;;8.98;;
11681;SDS011;5897;42.640;23.310;2023-05-10T10:26:14;9.40;;;8.32;;
11681;SDS011;5897;42.640;23.310;2023-05-10T10:28:45;9.15;;;8.20;;
11681;SDS011;5897;42.640;23.310;2023-05-10T10:31:21;9.95;;;8.95;;
11681;SDS011;5897;42.640;23.310;2023-05-10T10:34:01;12.70;;;9.13;;
11681;SDS011;5897;42.640;23.310;2023-05-10T10:36:32;11.50;;;8.27;;
11681;SDS011;5897;42.640;23.310;2023-05-10T10:39:02;11.93;;;9.60;;
11681;SDS011;5897;42.640;23.310;2023-05-10T10:41:36;8.70;;;7.80;;
11681;SDS011;5897;42.640;23.310;2023-05-10T10:44:25;8.63;;;7.82;;
11681;SDS011;5897;42.640;23.310;2023-05-10T10:47:01;11.70;;;8.93;;
11681;SDS011;5897;42.640;23.310;2023-05-10T10:49:38;11.20;;;8.30;;
11681;SDS011;5897;42.640;23.310;2023-05-10T10:52:13;10.05;;;9.05;;
11681;SDS011;5897;42.640;23.310;2023-05-10T10:54:41;12.30;;;8.60;;
11681;SDS011;5897;42.640;23.310;2023-05-10T10:57:13;9.50;;;8.50;;
11681;SDS011;5897;42.640;23.310;2023-05-10T10:59:43;14.70;;;9.15;;
11681;SDS011;5897;42.640;23.310;2023-05-10T11:02:17;8.68;;;7.55;;
11681;SDS011;5897;42.640;23.310;2023-05-10T11:05:00;9.55;;;7.60;;
11681;SDS011;5897;42.640;23.310;2023-05-10T11:08:13;9.77;;;8.60;;
11681;SDS011;5897;42.640;23.310;2023-05-10T11:13:34;13.02;;;8.13;;
11681;SDS011;5897;42.640;23.310;2023-05-10T11:16:13;12.82;;;8.65;;
11681;SDS011;5897;42.640;23.310;2023-05-10T11:21:25;14.57;;;7.85;;
11681;SDS011;5897;42.640;23.310;2023-05-10T11:23:54;9.52;;;8.55;;
11681;SDS011;5897;42.640;23.310;2023-05-10T11:26:22;12.52;;;7.07;;
11681;SDS011;5897;42.640;23.310;2023-05-10T11:28:51;10.18;;;8.13;;
11681;SDS011;5897;42.640;23.310;2023-05-10T11:31:20;10.02;;;7.85;;
11681;SDS011;5897;42.640;23.310;2023-05-10T11:33:48;8.00;;;7.20;;
11681;SDS011;5897;42.640;23.310;2023-05-10T11:36:16;8.50;;;7.55;;
11681;SDS011;5897;42.640;23.310;2023-05-10T11:38:44;9.57;;;7.40;;
11681;SDS011;5897;42.640;23.310;2023-05-10T11:41:13;8.15;;;7.25;;
11681;SDS011;5897;42.640;23.310;2023-05-10T11:43:41;8.32;;;7.53;;
11681;SDS011;5897;42.640;23.310;2023-05-10T11:46:09;8.77;;;7.60;;
11681;SDS011;5897;42.640;23.310;2023-05-10T11:48:38;10.35;;;7.15;;
11681;SDS011;5897;42.640;23.310;2023-05-10T11:51:06;9.20;;;7.85;;
11681;SDS011;5897;42.640;23.310;2023-05-10T11:53:33;11.77;;;7.95;;
11681;SDS011;5897;42.640;23.310;2023-05-10T11:56:03;8.50;;;7.50;;
11681;SDS011;5897;42.640;23.310;2023-05-10T11:58:32;12.77;;;8.05;;
11681;SDS011;5897;42.640;23.310;2023-05-10T12:01:00;7.88;;;7.13;;
11681;SDS011;5897;42.640;23.310;2023-05-10T12:03:27;11.30;;;9.45;;
11681;SDS011;5897;42.640;23.310;2023-05-10T12:05:54;8.93;;;7.72;;
11681;SDS011;5897;42.640;23.310;2023-05-10T12:08:22;10.35;;;8.77;;
11681;SDS011;5897;42.640;23.310;2023-05-10T12:10:49;9.05;;;7.22;;
11681;SDS011;5897;42.640;23.310;2023-05-10T12:13:16;7.75;;;7.05;;
11681;SDS011;5897;42.640;23.310;2023-05-10T12:15:45;8.50;;;7.70;;
11681;SDS011;5897;42.640;23.310;2023-05-10T12:18:12;10.57;;;8.30;;
11681;SDS011;5897;42.640;23.310;2023-05-10T12:20:39;10.63;;;7.07;;
11681;SDS011;5897;42.640;23.310;2023-05-10T12:23:07;11.25;;;8.25;;
11681;SDS011;5897;42.640;23.310;2023-05-10T12:25:35;11.98;;;7.95;;
11681;SDS011;5897;42.640;23.310;2023-05-10T12:28:04;9.57;;;8.32;;
11681;SDS011;5897;42.640;23.310;2023-05-10T12:30:33;8.65;;;7.85;;
11681;SDS011;5897;42.640;23.310;2023-05-10T12:33:02;8.88;;;7.93;;
11681;SDS011;5897;42.640;23.310;2023-05-10T12:35:43;13.25;;;8.02;;
11681;SDS011;5897;42.640;23.310;2023-05-10T12:38:27;9.20;;;8.35;;
11681;SDS011;5897;42.640;23.310;2023-05-10T12:40:55;9.68;;;7.72;;
11681;SDS011;5897;42.640;23.310;2023-05-10T12:43:23;10.38;;;8.95;;
11681;SDS011;5897;42.640;23.310;2023-05-10T12:45:50;9.80;;;8.75;;
11681;SDS011;5897;42.640;23.310;2023-05-10T12:48:18;11.10;;;8.60;;
11681;SDS011;5897;42.640;23.310;2023-05-10T12:50:45;9.85;;;8.68;;
11681;SDS011;5897;42.640;23.310;2023-05-10T12:53:12;9.88;;;8.52;;
11681;SDS011;5897;42.640;23.310;2023-05-10T12:55:40;11.15;;;9.80;;
11681;SDS011;5897;42.640;23.310;2023-05-10T12:58:07;9.05;;;8.15;;
11681;SDS011;5897;42.640;23.310;2023-05-10T13:00:34;9.55;;;8.65;;
11681;SDS011;5897;42.640;23.310;2023-05-10T13:03:03;13.18;;;8.85;;
11681;SDS011;5897;42.640;23.310;2023-05-10T13:05:31;8.60;;;7.70;;
11681;SDS011;5897;42.640;23.310;2023-05-10T13:07:58;10.95;;;8.90;;
11681;SDS011;5897;42.640;23.310;2023-05-10T13:10:25;10.07;;;8.68;;
11681;SDS011;5897;42.640;23.310;2023-05-10T13:12:52;9.85;;;8.43;;
11681;SDS011;5897;42.640;23.310;2023-05-10T13:15:19;10.02;;;8.00;;
11681;SDS011;5897;42.640;23.310;2023-05-10T13:17:45;10.23;;;8.55;;
11681;SDS011;5897;42.640;23.310;2023-05-10T13:20:12;9.07;;;7.60;;
11681;SDS011;5897;42.640;23.310;2023-05-10T13:22:41;9.48;;;8.48;;
11681;SDS011;5897;42.640;23.310;2023-05-10T13:25:08;10.68;;;7.93;;
11681;SDS011;5897;42.640;23.310;2023-05-10T13:27:35;9.68;;;8.35;;
11681;SDS011;5897;42.640;23.310;2023-05-10T13:30:02;8.48;;;7.65;;
11681;SDS011;5897;42.640;23.310;2023-05-10T13:32:30;8.68;;;7.70;;
11681;SDS011;5897;42.640;23.310;2023-05-10T13:34:57;10.05;;;7.35;;
11681;SDS011;5897;42.640;23.310;2023-05-10T13:37:23;8.98;;;8.07;;
11681;SDS011;5897;42.640;23.310;2023-05-10T13:39:51;8.70;;;7.80;;
11681;SDS011;5897;42.640;23.310;2023-05-10T13:42:18;10.85;;;7.30;;
11681;SDS011;5897;42.640;23.310;2023-05-10T13:44:45;8.57;;;7.70;;
11681;SDS011;5897;42.640;23.310;2023-05-10T13:47:12;8.68;;;7.68;;
11681;SDS011;5897;42.640;23.310;2023-05-10T13:49:38;9.85;;;8.00;;
11681;SDS011;5897;42.640;23.310;2023-05-10T13:52:05;10.02;;;8.05;;
11681;SDS011;5897;42.640;23.310;2023-05-10T13:54:32;10.23;;;7.63;;
11681;SDS011;5897;42.640;23.310;2023-05-10T13:57:00;9.57;;;7.55;;
11681;SDS011;5897;42.640;23.310;2023-05-10T13:59:28;11.05;;;9.85;;
11681;SDS011;5897;42.640;23.310;2023-05-10T14:01:56;19.90;;;16.77;;
11681;SDS011;5897;42.640;23.310;2023-05-10T14:04:23;10.05;;;7.93;;
11681;SDS011;5897;42.640;23.310;2023-05-10T14:06:50;9.75;;;7.90;;
11681;SDS011;5897;42.640;23.310;2023-05-10T14:09:17;12.73;;;8.50;;
11681;SDS011;5897;42.640;23.310;2023-05-10T14:11:44;13.02;;;8.82;;
11681;SDS011;5897;42.640;23.310;2023-05-10T14:14:13;12.00;;;9.98;;
11681;SDS011;5897;42.640;23.310;2023-05-10T14:16:41;11.88;;;10.68;;
11681;SDS011;5897;42.640;23.310;2023-05-10T14:19:09;8.90;;;8.05;;
11681;SDS011;5897;42.640;23.310;2023-05-10T14:21:35;9.30;;;8.40;;
11681;SDS011;5897;42.640;23.310;2023-05-10T14:24:02;9.60;;;8.55;;
11681;SDS011;5897;42.640;23.310;2023-05-10T14:26:29;8.75;;;7.93;;
11681;SDS011;5897;42.640;23.310;2023-05-10T14:28:56;11.02;;;9.98;;
11681;SDS011;5897;42.640;23.310;2023-05-10T14:31:25;9.10;;;7.38;;
11681;SDS011;5897;42.640;23.310;2023-05-10T14:33:52;8.98;;;7.10;;
11681;SDS011;5897;42.640;23.310;2023-05-10T14:36:19;8.57;;;7.55;;
11681;SDS011;5897;42.640;23.310;2023-05-10T14:38:45;10.13;;;7.28;;
11681;SDS011;5897;42.640;23.310;2023-05-10T14:41:12;12.07;;;8.15;;
11681;SDS011;5897;42.640;23.310;2023-05-10T14:43:40;9.48;;;8.40;;
11681;SDS011;5897;42.640;23.310;2023-05-10T14:46:07;10.80;;;8.57;;
11681;SDS011;5897;42.640;23.310;2023-05-10T14:48:35;12.07;;;8.88;;
11681;SDS011;5897;42.640;23.310;2023-05-10T14:51:02;9.18;;;7.97;;
11681;SDS011;5897;42.640;23.310;2023-05-10T14:53:28;9.00;;;7.90;;
11681;SDS011;5897;42.640;23.310;2023-05-10T14:55:55;9.25;;;7.82;;
11681;SDS011;5897;42.640;23.310;2023-05-10T14:58:22;8.63;;;7.82;;
11681;SDS011;5897;42.640;23.310;2023-05-10T15:00:49;17.45;;;15.60;;
11681;SDS011;5897;42.640;23.310;2023-05-10T15:03:16;28.35;;;22.95;;